Time;durP1;ratioP1;P1;durP2;ratioP2;P2;SDS_P1;SDS_P2;PMS_P1;PMS_P2;Temp;Humidity;BMP_temperature;BMP_pressure;BME280_temperature;BME280_humidity;BME280_pressure;Samples;Min_cycle;Max_cycle;Signal;HPM_P1;HPM_P2
2024/01/12 00:00:58;;;;;;;1.75;1.65;;;;;;;-16.05;73.33;98058.34;4845382;29;20110;-78
2024/01/12 00:03:25;;;;;;;1.65;1.55;;;;;;;-16.08;73.33;98063.69;4860849;29;20535;-77
2024/01/12 00:05:53;;;;;;;1.63;1.52;;;;;;;-16.04;72.43;98054.84;4860809;29;20077;-77
2024/01/12 00:08:20;;;;;;;1.60;1.50;;;;;;;-16.08;72.51;98058.53;4860798;29;20512;-77
2024/01/12 00:10:47;;;;;;;1.67;1.58;;;;;;;-16.12;72.19;98061.44;4845442;29;20512;-77
2024/01/12 00:13:15;;;;;;;1.80;1.70;;;;;;;-16.21;72.12;98061.09;4860696;29;20086;-78
2024/01/12 00:15:42;;;;;;;2.00;1.90;;;;;;;-16.30;72.43;98059.13;4860735;29;20058;-77
2024/01/12 00:18:10;;;;;;;1.85;1.75;;;;;;;-16.31;72.34;98066.97;4877501;29;20080;-77
2024/01/12 00:20:42;;;;;;;1.73;1.63;;;;;;;-16.30;72.51;98072.06;4879141;29;20064;-77
2024/01/12 00:23:10;;;;;;;1.55;1.45;;;;;;;-16.32;72.07;98066.16;4879204;29;20060;-78
2024/01/12 00:25:38;;;;;;;1.58;1.48;;;;;;;-16.37;72.14;98063.03;4879018;29;20080;-78
2024/01/12 00:28:05;;;;;;;1.55;1.45;;;;;;;-16.32;72.11;98063.56;4879170;29;20072;-77
2024/01/12 00:30:33;;;;;;;1.80;1.70;;;;;;;-16.35;71.94;98063.78;4863455;29;20049;-78
2024/01/12 00:33:07;;;;;;;1.50;1.40;;;;;;;-16.40;71.96;98068.41;4847223;29;20155;-77
2024/01/12 00:35:43;;;;;;;1.80;1.70;;;;;;;-16.49;72.26;98085.31;4880305;29;20063;-77
2024/01/12 00:38:13;;;;;;;1.73;1.63;;;;;;;-16.47;72.57;98075.72;4881246;29;20087;-77
2024/01/12 00:40:41;;;;;;;1.90;1.80;;;;;;;-16.43;72.02;98084.09;4880022;29;20053;-78
2024/01/12 00:43:11;;;;;;;1.80;1.70;;;;;;;-16.50;72.47;98081.09;4881137;29;20139;-78
2024/01/12 00:45:38;;;;;;;1.42;1.33;;;;;;;-16.46;72.65;98090.28;4879605;29;20049;-77
2024/01/12 00:48:06;;;;;;;1.67;1.58;;;;;;;-16.45;72.57;98086.78;4878764;29;20053;-77
2024/01/12 00:50:34;;;;;;;1.45;1.35;;;;;;;-16.48;72.79;98083.53;4880856;29;20060;-76
2024/01/12 00:53:01;;;;;;;2.08;1.95;;;;;;;-16.53;73.03;98083.00;4880718;29;20061;-77
2024/01/12 00:55:30;;;;;;;1.60;1.50;;;;;;;-16.48;73.30;98078.38;4880786;29;20511;-76
2024/01/12 00:57:58;;;;;;;1.70;1.60;;;;;;;-16.50;73.35;98077.69;4895246;29;20059;-76
2024/01/12 01:00:25;;;;;;;1.70;1.60;;;;;;;-16.50;73.58;98072.50;4879637;29;20056;-77
2024/01/12 01:02:52;;;;;;;1.65;1.55;;;;;;;-16.51;73.68;98086.34;4880718;29;20060;-76
2024/01/12 01:05:19;;;;;;;1.70;1.60;;;;;;;-16.63;74.02;98068.13;4880766;29;20131;-76
2024/01/12 01:07:48;;;;;;;1.85;1.75;;;;;;;-16.53;74.40;98088.19;4863842;29;20057;-77
2024/01/12 01:10:15;;;;;;;1.70;1.60;;;;;;;-16.51;74.08;98089.75;4880418;29;20466;-77
2024/01/12 01:12:45;;;;;;;1.73;1.63;;;;;;;-16.55;74.54;98090.06;4880567;29;20088;-76
2024/01/12 01:15:14;;;;;;;1.40;1.30;;;;;;;-16.55;74.53;98096.03;4879273;29;20053;-77
2024/01/12 01:17:42;;;;;;;1.77;1.67;;;;;;;-16.49;74.84;98092.22;4893749;29;20139;-78
2024/01/12 01:20:10;;;;;;;1.40;1.30;;;;;;;-16.54;75.11;98092.53;4848548;29;20053;-77
2024/01/12 01:22:41;;;;;;;1.80;1.70;;;;;;;-16.58;75.31;98088.50;4863528;29;20056;-77
2024/01/12 01:25:10;;;;;;;1.67;1.58;;;;;;;-16.61;76.08;98097.25;4880190;29;20049;-77
2024/01/12 01:27:37;;;;;;;1.58;1.48;;;;;;;-16.35;76.25;98102.53;4880333;29;20053;-77
2024/01/12 01:30:05;;;;;;;1.90;1.80;;;;;;;-16.28;76.02;98108.94;4879069;29;20045;-77
2024/01/12 01:32:33;;;;;;;1.85;1.75;;;;;;;-16.27;76.16;98102.03;4879938;29;20143;-78
2024/01/12 01:35:00;;;;;;;1.88;1.77;;;;;;;-16.30;76.39;98104.78;4880045;29;20078;-77
2024/01/12 01:37:29;;;;;;;1.70;1.60;;;;;;;-16.36;76.71;98107.78;4880055;29;20075;-76
2024/01/12 01:39:56;;;;;;;1.70;1.60;;;;;;;-16.41;77.02;98108.88;4880165;29;20085;-77
2024/01/12 01:42:24;;;;;;;1.90;1.80;;;;;;;-16.42;77.39;98098.66;4878513;29;20053;-77
2024/01/12 01:45:04;;;;;;;1.50;1.40;;;;;;;-16.38;77.58;98102.69;4878305;29;20056;-77
2024/01/12 01:47:33;;;;;;;1.70;1.60;;;;;;;-16.35;77.78;98105.09;4864527;29;20064;-77
2024/01/12 01:50:01;;;;;;;1.90;1.80;;;;;;;-16.38;77.99;98106.13;4878293;29;20245;-78
2024/01/12 01:52:29;;;;;;;1.90;1.80;;;;;;;-16.34;78.17;98104.16;4894137;29;20064;-77
2024/01/12 01:54:57;;;;;;;1.67;1.58;;;;;;;-16.30;78.56;98107.38;4878300;29;20056;-77
2024/01/12 01:57:25;;;;;;;1.35;1.25;;;;;;;-16.31;78.81;98105.72;4878013;29;20049;-77
2024/01/12 01:59:55;;;;;;;1.63;1.52;;;;;;;-16.36;79.22;98111.19;4863269;29;20049;-76
2024/01/12 02:02:23;;;;;;;1.65;1.55;;;;;;;-16.32;79.35;98117.81;4880565;29;20056;-77
2024/01/12 02:04:52;;;;;;;1.67;1.58;;;;;;;-16.19;79.60;98118.69;4865230;29;20550;-77
2024/01/12 02:07:20;;;;;;;1.42;1.33;;;;;;;-16.19;79.69;98107.53;4880782;29;20511;-78
2024/01/12 02:09:47;;;;;;;1.77;1.67;;;;;;;-16.12;80.00;98113.13;4880624;29;20103;-78
2024/01/12 02:12:15;;;;;;;1.65;1.55;;;;;;;-15.99;80.06;98114.81;4880620;29;20053;-78
2024/01/12 02:14:42;;;;;;;1.88;1.77;;;;;;;-15.87;80.12;98118.34;4880422;29;20052;-78
2024/01/12 02:17:11;;;;;;;1.55;1.45;;;;;;;-15.84;79.97;98115.56;4895631;29;20057;-77
2024/01/12 02:19:38;;;;;;;1.90;1.80;;;;;;;-15.77;80.12;98114.22;4880021;29;20147;-77
2024/01/12 02:22:07;;;;;;;1.80;1.70;;;;;;;-15.67;80.13;98121.34;4880280;29;20124;-77
2024/01/12 02:24:34;;;;;;;1.85;1.75;;;;;;;-15.59;80.09;98119.91;4895667;29;20117;-77
2024/01/12 02:27:02;;;;;;;1.55;1.45;;;;;;;-15.50;80.14;98115.88;4895465;29;20108;-77
2024/01/12 02:29:32;;;;;;;1.80;1.70;;;;;;;-15.46;80.18;98109.56;4880502;29;20067;-77
2024/01/12 02:32:02;;;;;;;1.83;1.73;;;;;;;-15.42;80.04;98097.22;4895473;29;20483;-77
2024/01/12 02:34:30;;;;;;;1.58;1.48;;;;;;;-15.44;80.09;98101.69;4878848;29;20049;-78
2024/01/12 02:36:59;;;;;;;1.95;1.85;;;;;;;-15.43;80.47;98096.41;4877382;29;20053;-78
2024/01/12 02:39:27;;;;;;;1.90;1.80;;;;;;;-15.44;80.69;98086.16;4877617;29;20053;-77
2024/01/12 02:41:57;;;;;;;1.90;1.80;;;;;;;-15.41;80.84;98085.97;4877931;29;20080;-77
2024/01/12 02:44:26;;;;;;;1.60;1.50;;;;;;;-15.39;80.82;98074.59;4878791;29;20392;-77
2024/01/12 02:46:56;;;;;;;1.60;1.50;;;;;;;-15.38;81.08;98078.81;4878985;29;20145;-78
2024/01/12 02:49:23;;;;;;;1.73;1.63;;;;;;;-15.41;81.07;98076.44;4878724;29;20475;-77
2024/01/12 02:55:15;;;;;;;1.60;1.50;;;;;;;-15.30;81.29;98065.34;4871756;29;20061;-77
2024/01/12 02:57:42;;;;;;;1.63;1.52;;;;;;;-15.17;81.41;98078.28;4878576;29;20506;-77
2024/01/12 03:00:10;;;;;;;1.80;1.70;;;;;;;-15.12;81.34;98084.78;4877415;29;20049;-77
2024/01/12 03:02:38;;;;;;;1.48;1.38;;;;;;;-15.05;81.39;98084.38;4878703;29;20049;-77
2024/01/12 03:05:07;;;;;;;2.00;1.90;;;;;;;-15.03;81.55;98080.75;4878567;29;20507;-78
2024/01/12 03:07:35;;;;;;;1.83;1.73;;;;;;;-14.98;81.52;98078.66;4876681;29;20474;-77
2024/01/12 03:10:02;;;;;;;1.77;1.67;;;;;;;-14.95;81.54;98080.19;4878627;29;20057;-77
2024/01/12 03:12:29;;;;;;;1.60;1.50;;;;;;;-14.94;81.56;98079.25;4881335;29;20459;-77
2024/01/12 03:15:00;;;;;;;1.70;1.60;;;;;;;-14.92;81.78;98088.56;4881146;29;20049;-79
2024/01/12 03:17:30;;;;;;;1.77;1.67;;;;;;;-14.89;81.85;98077.16;4882398;29;20052;-79
2024/01/12 03:19:58;;;;;;;1.67;1.58;;;;;;;-14.94;81.69;98076.66;4882366;29;20077;-78
2024/01/12 03:22:25;;;;;;;1.48;1.38;;;;;;;-15.00;81.98;98077.94;4866034;29;20550;-78
2024/01/12 03:27:44;;;;;;;1.70;1.60;;;;;;;-15.00;81.93;98079.69;4882037;29;20045;-78
2024/01/12 03:30:12;;;;;;;2.00;1.90;;;;;;;-15.00;82.01;98070.16;4881289;29;20064;-78
2024/01/12 03:32:41;;;;;;;1.90;1.80;;;;;;;-15.00;81.87;98061.56;4881866;29;20152;-77
2024/01/12 03:35:09;;;;;;;1.50;1.40;;;;;;;-15.04;82.07;98060.94;4880968;29;20364;-78
2024/01/12 03:37:37;;;;;;;1.75;1.65;;;;;;;-15.09;82.17;98063.03;4864251;29;20049;-78
2024/01/12 03:40:04;;;;;;;1.80;1.70;;;;;;;-15.05;82.47;98069.66;4863536;29;20140;-77
2024/01/12 03:42:32;;;;;;;1.80;1.70;;;;;;;-14.99;82.41;98069.22;4861929;29;20057;-78
2024/01/12 03:44:59;;;;;;;1.92;1.83;;;;;;;-14.90;82.27;98066.00;4861994;29;20101;-78
2024/01/12 03:47:26;;;;;;;1.75;1.65;;;;;;;-14.89;82.22;98062.44;4861770;29;20058;-78
2024/01/12 03:49:55;;;;;;;1.52;1.42;;;;;;;-14.86;82.43;98061.41;4861397;29;20140;-78
2024/01/12 03:52:22;;;;;;;1.95;1.85;;;;;;;-14.81;82.45;98054.16;4877300;29;20085;-78
2024/01/12 03:54:49;;;;;;;1.73;1.63;;;;;;;-14.88;82.88;98053.78;4863129;29;20144;-78
2024/01/12 03:57:17;;;;;;;1.83;1.73;;;;;;;-14.87;82.96;98063.19;4862556;29;20104;-78
2024/01/12 03:59:44;;;;;;;2.00;1.90;;;;;;;-14.85;83.30;98052.72;4863071;29;20056;-79
2024/01/12 04:02:12;;;;;;;1.83;1.73;;;;;;;-14.87;83.20;98060.59;4862873;29;20140;-78
2024/01/12 04:04:41;;;;;;;1.83;1.73;;;;;;;-14.95;83.12;98062.06;4862883;29;20050;-78
2024/01/12 04:07:09;;;;;;;1.73;1.63;;;;;;;-15.00;83.17;98051.22;4862704;29;20148;-78
2024/01/12 04:09:36;;;;;;;1.80;1.70;;;;;;;-15.08;83.43;98044.81;4862740;29;20140;-81
2024/01/12 04:12:04;;;;;;;1.67;1.58;;;;;;;-15.09;83.58;98047.50;4861230;29;20414;-79
2024/01/12 04:14:31;;;;;;;1.40;1.30;;;;;;;-15.22;83.60;98046.69;4845996;29;20049;-79
2024/01/12 04:17:03;;;;;;;1.67;1.58;;;;;;;-15.19;84.23;98043.91;4860958;29;20617;-78
2024/01/12 04:19:31;;;;;;;1.80;1.70;;;;;;;-15.17;84.22;98045.44;4862249;29;20065;-78
2024/01/12 04:22:02;;;;;;;1.73;1.63;;;;;;;-15.07;84.51;98050.81;4862299;29;20057;-80
2024/01/12 04:24:33;;;;;;;1.60;1.50;;;;;;;-15.01;84.34;98059.91;4845802;29;20575;-80
2024/01/12 04:27:00;;;;;;;2.22;2.03;;;;;;;-14.95;84.55;98062.06;4860607;29;20062;-79
2024/01/12 04:29:32;;;;;;;1.70;1.60;;;;;;;-14.92;84.53;98057.50;4851394;29;20069;-78
2024/01/12 04:32:00;;;;;;;1.67;1.58;;;;;;;-14.90;84.86;98068.59;4859459;29;20057;-80
2024/01/12 04:34:29;;;;;;;1.80;1.70;;;;;;;-14.83;84.78;98075.91;4859729;29;20054;-79
2024/01/12 04:36:57;;;;;;;1.70;1.60;;;;;;;-14.76;84.95;98075.41;4859630;29;20150;-78
2024/01/12 04:39:24;;;;;;;1.70;1.60;;;;;;;-14.67;84.95;98060.94;4859692;29;20054;-78
2024/01/12 04:41:54;;;;;;;1.52;1.42;;;;;;;-14.66;85.12;98062.59;4859448;29;20219;-79
2024/01/12 04:44:21;;;;;;;1.90;1.80;;;;;;;-14.68;85.03;98041.16;4857515;29;20053;-78
2024/01/12 04:46:49;;;;;;;1.83;1.73;;;;;;;-14.76;85.05;98040.88;4859817;29;20499;-77
2024/01/12 04:49:16;;;;;;;1.55;1.45;;;;;;;-14.83;85.33;98032.72;4859019;29;20060;-77
2024/01/12 04:51:44;;;;;;;1.95;1.85;;;;;;;-14.88;85.47;98033.06;4856483;29;20053;-77
2024/01/12 04:54:12;;;;;;;1.65;1.55;;;;;;;-14.95;85.73;98029.22;4861482;29;20491;-77
2024/01/12 04:56:47;;;;;;;2.10;1.95;;;;;;;-15.07;85.78;98035.28;4866491;29;20449;-77
2024/01/12 04:59:31;;;;;;;1.67;1.58;;;;;;;-15.17;86.26;98042.84;4843035;29;20430;-77
2024/01/12 05:02:02;;;;;;;1.48;1.38;;;;;;;-15.08;86.81;98046.56;4863505;29;20073;-77
2024/01/12 05:04:31;;;;;;;1.83;1.73;;;;;;;-14.83;86.94;98042.25;4871597;29;20594;-77
2024/01/12 05:06:58;;;;;;;1.75;1.65;;;;;;;-14.85;86.46;98039.78;4876826;29;20049;-77
2024/01/12 05:09:26;;;;;;;1.90;1.80;;;;;;;-14.91;86.66;98040.19;4882264;29;20044;-77
2024/01/12 05:11:54;;;;;;;1.90;1.80;;;;;;;-14.88;86.75;98038.22;4872769;29;20048;-77
2024/01/12 05:14:21;;;;;;;1.90;1.80;;;;;;;-14.85;86.80;98035.41;4871626;29;20526;-77
2024/01/12 05:17:05;;;;;;;1.60;1.50;;;;;;;-14.80;86.83;98032.50;4860221;29;20542;-76
2024/01/12 05:19:38;;;;;;;1.88;1.77;;;;;;;-14.75;86.69;98038.19;4823998;29;20049;-76
2024/01/12 05:22:13;;;;;;;1.80;1.70;;;;;;;-14.63;86.68;98039.91;4832187;29;20054;-77
2024/01/12 05:24:41;;;;;;;1.60;1.50;;;;;;;-14.52;87.01;98039.09;4834540;29;20058;-77
2024/01/12 05:27:08;;;;;;;1.63;1.52;;;;;;;-14.38;86.79;98042.44;4823117;29;20539;-76
2024/01/12 05:29:38;;;;;;;1.52;1.42;;;;;;;-14.25;86.60;98038.03;4847789;29;20160;-77
2024/01/12 05:32:07;;;;;;;1.73;1.63;;;;;;;-14.18;86.23;98034.03;4828573;29;20054;-77
2024/01/12 05:34:42;;;;;;;1.38;1.27;;;;;;;-14.13;86.10;98031.91;4827916;29;20547;-77
2024/01/12 05:37:14;;;;;;;1.77;1.67;;;;;;;-14.03;85.75;98030.28;4796713;29;20521;-77
2024/01/12 05:39:41;;;;;;;1.63;1.52;;;;;;;-14.03;85.42;98016.50;4843889;29;20050;-76
2024/01/12 05:42:09;;;;;;;1.60;1.50;;;;;;;-13.96;85.32;98043.63;4832261;29;20499;-76
2024/01/12 05:44:36;;;;;;;1.58;1.48;;;;;;;-13.90;85.16;98044.94;4840438;29;20081;-76
2024/01/12 05:47:12;;;;;;;1.75;1.65;;;;;;;-13.88;84.86;98043.06;4840025;29;20148;-79
2024/01/12 05:49:40;;;;;;;1.88;1.77;;;;;;;-13.86;84.62;98029.03;4839291;29;20450;-79
2024/01/12 05:52:08;;;;;;;2.15;2.00;;;;;;;-13.83;84.61;98035.75;4824936;29;20170;-79
2024/01/12 05:54:35;;;;;;;1.70;1.60;;;;;;;-13.78;84.37;98042.25;4840217;29;20054;-80
2024/01/12 05:57:03;;;;;;;1.75;1.65;;;;;;;-13.82;84.63;98029.63;4849317;29;20057;-79
2024/01/12 05:59:45;;;;;;;1.90;1.80;;;;;;;-13.80;84.64;98032.94;4812864;29;20080;-80
2024/01/12 06:02:15;;;;;;;1.90;1.80;;;;;;;-13.71;84.42;98031.44;4859589;29;20057;-80
2024/01/12 06:04:53;;;;;;;1.80;1.70;;;;;;;-13.69;84.51;98034.75;4844392;29;20099;-79
2024/01/12 06:07:20;;;;;;;1.67;1.58;;;;;;;-13.65;84.58;98039.56;4858477;29;20126;-79
2024/01/12 06:09:48;;;;;;;1.92;1.83;;;;;;;-13.62;84.67;98028.97;4855825;29;20048;-78
2024/01/12 06:12:15;;;;;;;2.00;1.90;;;;;;;-13.59;84.68;98041.72;4857898;29;20108;-78
2024/01/12 06:14:42;;;;;;;1.83;1.73;;;;;;;-13.53;84.91;98030.03;4857776;29;20090;-78
2024/01/12 06:17:10;;;;;;;1.80;1.70;;;;;;;-13.48;84.82;98040.06;4855277;29;20557;-78
2024/01/12 06:19:37;;;;;;;1.90;1.80;;;;;;;-13.49;85.07;98025.41;4810062;29;20050;-77
2024/01/12 06:22:15;;;;;;;1.70;1.60;;;;;;;-13.45;85.05;98024.25;4812345;29;20149;-77
2024/01/12 06:24:43;;;;;;;1.85;1.75;;;;;;;-13.49;84.80;98036.66;4866343;29;20158;-77
2024/01/12 06:27:10;;;;;;;1.60;1.50;;;;;;;-13.44;85.15;98028.47;4868073;29;20553;-77
2024/01/12 06:29:41;;;;;;;1.63;1.52;;;;;;;-13.37;85.00;98042.66;4876690;29;20458;-77
2024/01/12 06:32:09;;;;;;;1.90;1.80;;;;;;;-13.40;85.03;98040.28;4852602;29;20067;-77
2024/01/12 06:34:40;;;;;;;1.60;1.50;;;;;;;-13.34;85.23;98045.00;4858636;29;20041;-79
2024/01/12 06:37:08;;;;;;;1.80;1.70;;;;;;;-13.32;85.45;98043.97;4869125;29;20045;-77
2024/01/12 06:39:39;;;;;;;1.60;1.50;;;;;;;-13.26;85.77;98058.22;4870051;29;20133;-77
2024/01/12 06:42:06;;;;;;;1.50;1.40;;;;;;;-13.21;85.76;98052.66;4844588;29;20069;-77
2024/01/12 06:44:38;;;;;;;1.73;1.63;;;;;;;-13.21;86.01;98052.66;4849682;29;20049;-78
2024/01/12 06:47:08;;;;;;;1.63;1.52;;;;;;;-13.12;85.90;98067.53;4852190;29;20143;-77
2024/01/12 06:49:35;;;;;;;1.60;1.50;;;;;;;-13.12;85.72;98051.94;4838672;29;20049;-78
2024/01/12 06:52:03;;;;;;;1.70;1.60;;;;;;;-13.19;85.73;98058.53;4863023;29;20439;-78
2024/01/12 06:54:31;;;;;;;1.90;1.80;;;;;;;-13.15;86.02;98053.00;4873498;29;20056;-77
2024/01/12 06:56:59;;;;;;;1.77;1.67;;;;;;;-13.11;85.80;98061.41;4873785;29;20558;-76
2024/01/12 06:59:26;;;;;;;1.80;1.70;;;;;;;-13.06;86.00;98063.63;4858947;29;20414;-77
2024/01/12 07:01:54;;;;;;;1.92;1.83;;;;;;;-13.02;85.68;98063.25;4870804;29;20076;-76
2024/01/12 07:04:40;;;;;;;1.88;1.77;;;;;;;-13.06;85.75;98056.69;4887255;29;20068;-75
2024/01/12 07:07:09;;;;;;;1.90;1.80;;;;;;;-13.08;85.53;98061.16;4876023;29;20064;-77
2024/01/12 07:09:46;;;;;;;1.63;1.52;;;;;;;-13.03;85.46;98071.19;4875077;29;20136;-76
2024/01/12 07:12:21;;;;;;;2.05;1.92;;;;;;;-12.94;85.30;98075.66;4888429;29;20400;-76
2024/01/12 07:15:02;;;;;;;1.70;1.60;;;;;;;-13.01;85.20;98077.06;4876384;29;20396;-76
2024/01/12 07:17:30;;;;;;;1.98;1.88;;;;;;;-12.95;85.26;98076.63;4870482;29;20049;-76
2024/01/12 07:19:57;;;;;;;1.85;1.75;;;;;;;-12.91;85.45;98065.88;4898065;29;20045;-77
2024/01/12 07:22:24;;;;;;;1.70;1.60;;;;;;;-12.84;85.48;98071.38;4868132;29;20414;-76
2024/01/12 07:24:52;;;;;;;2.00;1.90;;;;;;;-12.79;85.55;98074.44;4880897;29;20120;-76
2024/01/12 07:27:22;;;;;;;1.98;1.88;;;;;;;-12.75;85.36;98068.09;4897366;29;20112;-76
2024/01/12 07:30:00;;;;;;;1.88;1.77;;;;;;;-12.69;84.94;98082.34;4858320;29;20058;-77
2024/01/12 07:32:29;;;;;;;1.38;1.27;;;;;;;-12.61;84.75;98079.16;4859713;29;20056;-77
2024/01/12 07:34:57;;;;;;;1.70;1.60;;;;;;;-12.61;84.20;98079.16;4870812;29;20048;-76
2024/01/12 07:37:30;;;;;;;1.48;1.38;;;;;;;-12.74;83.90;98067.13;5202224;23;20012;-77
2024/01/12 07:39:59;;;;;;;1.92;1.83;;;;;;;-12.58;84.10;98091.91;4911815;29;20052;-80
2024/01/12 07:42:27;;;;;;;1.80;1.70;;;;;;;-12.54;84.09;98093.31;4913052;29;20086;-76
2024/01/12 07:44:54;;;;;;;1.90;1.80;;;;;;;-12.51;84.02;98096.50;4911947;29;20146;-76
2024/01/12 07:47:22;;;;;;;1.90;1.80;;;;;;;-12.51;83.37;98099.09;4906316;29;20048;-77
2024/01/12 07:49:50;;;;;;;1.73;1.63;;;;;;;-12.45;83.13;98098.63;4892520;29;20044;-77
2024/01/12 07:52:17;;;;;;;1.60;1.50;;;;;;;-12.39;83.11;98099.09;4893637;29;20057;-76
2024/01/12 07:54:48;;;;;;;1.90;1.80;;;;;;;-12.48;82.39;98098.88;4893394;29;20210;-76
2024/01/12 07:57:15;;;;;;;2.00;1.90;;;;;;;-12.48;81.66;98092.81;4895909;29;20056;-77
2024/01/12 07:59:42;;;;;;;1.90;1.80;;;;;;;-12.42;81.63;98100.16;4911434;29;20055;-76
2024/01/12 08:02:10;;;;;;;1.70;1.60;;;;;;;-12.40;81.01;98080.06;4899232;29;20048;-76
2024/01/12 08:04:38;;;;;;;2.00;1.90;;;;;;;-12.35;80.98;98085.72;4916152;29;20059;-76
2024/01/12 08:07:06;;;;;;;1.60;1.50;;;;;;;-12.24;80.59;98097.84;4917792;29;20048;-78
2024/01/12 08:09:34;;;;;;;1.88;1.77;;;;;;;-12.20;79.98;98103.63;4901048;29;20052;-77
2024/01/12 08:12:02;;;;;;;1.80;1.70;;;;;;;-12.06;80.07;98111.16;4917617;29;20060;-77
2024/01/12 08:14:29;;;;;;;1.77;1.67;;;;;;;-12.06;79.62;98100.75;4917285;29;20449;-77
2024/01/12 08:16:57;;;;;;;1.50;1.40;;;;;;;-12.16;79.60;98110.25;4917614;29;20138;-77
2024/01/12 08:19:24;;;;;;;1.42;1.33;;;;;;;-12.31;80.43;98126.13;4917531;29;20063;-77
2024/01/12 08:21:52;;;;;;;1.80;1.70;;;;;;;-12.45;81.25;98131.59;4915749;29;20092;-77
2024/01/12 08:24:23;;;;;;;1.75;1.65;;;;;;;-12.53;82.41;98140.00;4916367;29;20498;-77
2024/01/12 08:26:51;;;;;;;1.55;1.45;;;;;;;-12.42;82.70;98138.34;4917327;29;20425;-76
2024/01/12 08:29:19;;;;;;;1.65;1.55;;;;;;;-12.28;82.73;98144.09;4917031;29;20049;-76
2024/01/12 08:31:58;;;;;;;1.83;1.73;;;;;;;-12.25;82.42;98156.03;4915784;29;20048;-76
2024/01/12 08:34:27;;;;;;;1.90;1.80;;;;;;;-12.36;81.54;98143.03;4884498;29;20071;-77
2024/01/12 08:36:55;;;;;;;1.90;1.80;;;;;;;-12.50;80.56;98157.13;4917313;29;20048;-76
2024/01/12 08:39:22;;;;;;;1.90;1.80;;;;;;;-12.45;80.05;98166.22;4899703;29;20056;-77
2024/01/12 08:41:50;;;;;;;1.70;1.60;;;;;;;-12.29;79.40;98176.25;4880918;29;20045;-77
2024/01/12 08:44:35;;;;;;;1.92;1.83;;;;;;;-11.74;78.38;98168.38;4854890;29;20155;-77
2024/01/12 08:47:14;;;;;;;1.70;1.60;;;;;;;-11.27;77.25;98160.19;4864705;29;20061;-77
2024/01/12 08:49:41;;;;;;;1.60;1.50;;;;;;;-10.93;76.02;98172.06;4897659;29;20455;-76
2024/01/12 08:52:09;;;;;;;1.88;1.77;;;;;;;-10.60;75.13;98158.91;4896724;29;20056;-76
2024/01/12 08:54:36;;;;;;;1.80;1.70;;;;;;;-10.76;73.07;98162.81;4897991;29;20049;-76
2024/01/12 08:57:04;;;;;;;1.73;1.63;;;;;;;-11.28;72.94;98163.78;4896540;29;20056;-77
2024/01/12 08:59:32;;;;;;;1.83;1.73;;;;;;;-11.16;72.94;98168.78;4897608;29;20395;-77
2024/01/12 09:02:03;;;;;;;1.70;1.60;;;;;;;-11.15;72.43;98170.41;4865578;29;20048;-77
2024/01/12 09:04:57;;;;;;;1.65;1.55;;;;;;;-10.91;71.29;98175.38;4872236;29;20128;-77
2024/01/12 09:07:24;;;;;;;1.58;1.48;;;;;;;-10.34;69.62;98173.13;4895742;29;20056;-76
2024/01/12 09:09:52;;;;;;;1.95;1.85;;;;;;;-10.23;67.44;98190.41;4881108;29;20060;-77
2024/01/12 09:12:33;;;;;;;1.98;1.88;;;;;;;-9.79;66.02;98179.66;4881902;29;20057;-77
2024/01/12 09:15:08;;;;;;;1.80;1.70;;;;;;;-9.04;64.48;98183.31;4845753;29;20048;-76
2024/01/12 09:17:40;;;;;;;1.70;1.60;;;;;;;-9.40;62.06;98177.88;4882632;29;20063;-77
2024/01/12 09:20:15;;;;;;;1.98;1.88;;;;;;;-9.34;61.07;98192.16;4894136;29;20057;-77
2024/01/12 09:22:45;;;;;;;1.80;1.70;;;;;;;-8.87;60.46;98187.84;4880641;29;20064;-77
2024/01/12 09:25:21;;;;;;;1.52;1.42;;;;;;;-8.63;60.01;98197.81;4894403;29;20056;-77
2024/01/12 09:27:58;;;;;;;2.15;2.00;;;;;;;-7.97;58.69;98203.84;4894126;29;20139;-77
2024/01/12 09:30:27;;;;;;;1.70;1.60;;;;;;;-7.67;57.47;98208.75;4878156;29;20660;-77
2024/01/12 09:33:04;;;;;;;1.90;1.80;;;;;;;-7.73;54.42;98205.88;4880290;29;20667;-78
2024/01/12 09:35:33;;;;;;;1.45;1.35;;;;;;;-7.52;55.17;98209.06;4890936;29;20052;-77
2024/01/12 09:38:00;;;;;;;1.48;1.38;;;;;;;-7.62;55.42;98203.06;4877567;29;20517;-76
2024/01/12 09:40:28;;;;;;;1.88;1.77;;;;;;;-8.32;56.18;98214.06;4891589;29;20589;-76
2024/01/12 09:42:57;;;;;;;1.83;1.73;;;;;;;-8.47;57.22;98215.53;4846670;29;20044;-76
2024/01/12 09:45:36;;;;;;;1.60;1.50;;;;;;;-7.92;57.18;98222.56;4862213;29;20052;-77
2024/01/12 09:48:12;;;;;;;1.90;1.80;;;;;;;-7.65;56.29;98221.69;4863430;29;20049;-77
2024/01/12 09:50:47;;;;;;;;;;;;;;;-7.16;54.60;98214.28;4877644;29;20083;-77
2024/01/12 09:53:36;;;;;;;1.90;1.80;;;;;;;-6.65;52.36;98215.31;4912909;29;20406;-80
2024/01/12 09:56:03;;;;;;;1.83;1.73;;;;;;;-6.30;51.63;98210.91;4897250;29;20059;-78
2024/01/12 09:58:38;;;;;;;1.40;1.30;;;;;;;-6.47;52.04;98209.19;4896436;29;20499;-80
2024/01/12 10:01:10;;;;;;;1.75;1.65;;;;;;;-5.84;51.84;98206.13;4901115;29;20059;-78
2024/01/12 10:03:58;;;;;;;1.85;1.75;;;;;;;-5.11;50.40;98210.69;4900466;29;20082;-78
2024/01/12 10:06:32;;;;;;;1.60;1.50;;;;;;;-5.15;48.45;98208.56;4900644;29;20051;-77
2024/01/12 10:09:09;;;;;;;1.70;1.60;;;;;;;-5.51;46.76;98204.41;4898414;29;20425;-78
2024/01/12 10:11:37;;;;;;;1.60;1.50;;;;;;;-6.04;46.58;98192.47;4897448;29;20044;-77
2024/01/12 10:14:07;;;;;;;1.60;1.50;;;;;;;-5.79;47.05;98206.47;4912346;29;20115;-78
2024/01/12 10:16:55;;;;;;;1.60;1.50;;;;;;;-5.67;46.44;98210.47;4896839;29;20159;-78
2024/01/12 10:19:26;;;;;;;2.10;1.98;;;;;;;-5.83;44.46;98212.22;4830065;29;20053;-77
2024/01/12 10:22:21;;;;;;;1.75;1.65;;;;;;;-6.36;44.73;98207.09;4858320;29;20061;-78
2024/01/12 10:25:20;;;;;;;1.60;1.50;;;;;;;-6.42;45.37;98212.16;4849110;29;20053;-78
2024/01/12 10:28:22;;;;;;;1.60;1.50;;;;;;;-6.04;45.72;98215.31;4847945;29;20060;-78
2024/01/12 10:31:07;;;;;;;1.73;1.63;;;;;;;-5.53;44.88;98216.06;4840955;29;20057;-78
2024/01/12 10:33:42;;;;;;;1.50;1.40;;;;;;;-5.21;44.61;98210.03;4841369;29;20057;-78
2024/01/12 10:36:20;;;;;;;1.50;1.40;;;;;;;-5.10;43.40;98228.13;4811253;29;20080;-78
2024/01/12 10:38:53;;;;;;;1.65;1.55;;;;;;;-5.30;44.30;98222.34;4834846;29;20082;-77
2024/01/12 10:41:24;;;;;;;1.65;1.55;;;;;;;-5.72;43.02;98220.63;4804367;29;20097;-79
2024/01/12 10:43:58;;;;;;;1.73;1.63;;;;;;;-6.28;43.94;98223.88;4786464;29;20047;-78
2024/01/12 10:46:41;;;;;;;1.50;1.40;;;;;;;-5.86;44.51;98241.44;4755331;30;20055;-78
2024/01/12 10:49:26;;;;;;;1.60;1.50;;;;;;;-5.60;43.29;98215.06;4784825;29;20143;-78
2024/01/12 10:52:39;;;;;;;1.50;1.40;;;;;;;-5.53;43.11;98226.59;4819734;29;20058;-78
2024/01/12 10:55:21;;;;;;;1.10;1.10;;;;;;;-7.61;44.08;98233.53;4789265;29;20062;-79
2024/01/12 10:57:56;;;;;;;1.52;1.42;;;;;;;-7.53;45.38;98233.59;4804218;29;20050;-78
2024/01/12 11:00:26;;;;;;;1.52;1.42;;;;;;;-6.98;45.67;98236.06;4819691;29;20162;-78
2024/01/12 11:02:54;;;;;;;1.80;1.70;;;;;;;-6.53;43.96;98236.88;4852008;29;20054;-79
2024/01/12 11:05:25;;;;;;;1.90;1.80;;;;;;;-6.35;44.74;98242.91;4855755;29;20054;-79
2024/01/12 11:07:58;;;;;;;1.60;1.50;;;;;;;-6.02;44.12;98252.75;4856168;29;20069;-79
2024/01/12 11:10:33;;;;;;;1.50;1.40;;;;;;;-5.90;43.50;98254.91;4826339;29;20053;-79
2024/01/12 11:13:22;;;;;;;1.80;1.70;;;;;;;-4.92;42.81;98251.66;4854980;29;20076;-78
2024/01/12 11:16:08;;;;;;;1.70;1.60;;;;;;;-4.50;42.13;98255.91;4860877;29;20155;-78
2024/01/12 11:18:37;;;;;;;1.80;1.70;;;;;;;-4.17;41.97;98263.75;4849843;29;20109;-78
2024/01/12 11:21:10;;;;;;;1.67;1.58;;;;;;;-4.34;41.19;98259.50;4807877;29;20053;-79
2024/01/12 11:23:41;;;;;;;1.90;1.80;;;;;;;-4.19;41.16;98263.09;4833969;29;20084;-78
2024/01/12 11:26:09;;;;;;;1.55;1.45;;;;;;;-4.61;40.50;98264.97;4840136;29;20460;-78
2024/01/12 11:28:40;;;;;;;1.77;1.67;;;;;;;-5.80;39.67;98257.38;4836099;29;20057;-78
2024/01/12 11:31:07;;;;;;;1.50;1.40;;;;;;;-6.89;41.22;98285.97;4839633;29;20053;-78
2024/01/12 11:33:43;;;;;;;1.73;1.63;;;;;;;-7.25;43.14;98275.50;4859594;29;20221;-78
2024/01/12 11:36:15;;;;;;;1.67;1.58;;;;;;;-6.69;42.00;98281.38;4857953;29;20520;-77
2024/01/12 11:38:43;;;;;;;1.60;1.50;;;;;;;-6.30;41.32;98281.81;4858235;29;20065;-78
2024/01/12 11:41:12;;;;;;;1.70;1.60;;;;;;;-6.17;41.52;98287.47;4848792;29;20133;-78
2024/01/12 11:43:47;;;;;;;1.58;1.48;;;;;;;-6.35;40.60;98287.53;4858805;29;20061;-78
2024/01/12 11:46:16;;;;;;;1.83;1.73;;;;;;;-6.44;41.18;98298.13;4842194;29;20048;-79
2024/01/12 11:48:47;;;;;;;1.95;1.85;;;;;;;-6.13;41.27;98301.13;4862394;29;20072;-79